Time;durP1;ratioP1;P1;durP2;ratioP2;P2;SDS_P1;SDS_P2;PMS_P1;PMS_P2;Temp;Humidity;BMP_temperature;BMP_pressure;BME280_temperature;BME280_humidity;BME280_pressure;Samples;Min_cycle;Max_cycle;Signal;HPM_P1;HPM_P2
2022/04/20 00:04:05;;;;;;;25.75;13.15;;;;;;;;;;10515106;28;20028;-77
2022/04/20 00:09:05;;;;;;;17.75;10.82;;;;;;;;;;10515095;28;20020;-75
2022/04/20 00:14:05;;;;;;;22.02;14.43;;;;;;;;;;10533932;28;20051;-74
2022/04/20 00:19:06;;;;;;;20.55;12.93;;;;;;;;;;10514188;28;20059;-70
2022/04/20 00:24:06;;;;;;;20.77;13.20;;;;;;;;;;10552802;28;20027;-71
2022/04/20 00:29:06;;;;;;;21.20;15.68;;;;;;;;;;10574397;28;20016;-71
2022/04/20 00:34:06;;;;;;;23.23;13.70;;;;;;;;;;10556698;28;20464;-77
2022/04/20 00:39:07;;;;;;;23.67;15.37;;;;;;;;;;10556047;28;20046;-76
2022/04/20 00:44:07;;;;;;;25.13;16.08;;;;;;;;;;10555777;28;20051;-74
2022/04/20 00:49:09;;;;;;;23.80;13.93;;;;;;;;;;10556146;28;20023;-72
2022/04/20 00:54:11;;;;;;;24.50;14.00;;;;;;;;;;10555177;28;20141;-75
2022/04/20 00:59:13;;;;;;;19.95;14.27;;;;;;;;;;10554681;28;20034;-70
2022/04/20 01:04:13;;;;;;;21.73;14.80;;;;;;;;;;10538052;28;20402;-74
2022/04/20 01:09:13;;;;;;;26.30;15.57;;;;;;;;;;10554686;28;20027;-71
2022/04/20 01:14:13;;;;;;;20.40;14.38;;;;;;;;;;10554700;28;20015;-74
2022/04/20 01:19:14;;;;;;;22.77;14.60;;;;;;;;;;10554449;28;20055;-71
2022/04/20 01:24:14;;;;;;;27.20;17.83;;;;;;;;;;10554116;28;20028;-70
2022/04/20 01:29:15;;;;;;;28.80;20.45;;;;;;;;;;10572239;28;20022;-74
2022/04/20 01:34:15;;;;;;;25.00;16.75;;;;;;;;;;10553525;28;20011;-73
2022/04/20 01:39:16;;;;;;;25.70;17.77;;;;;;;;;;10553187;28;20024;-74
2022/04/20 01:44:16;;;;;;;27.42;16.80;;;;;;;;;;10532214;28;20327;-73
2022/04/20 01:49:16;;;;;;;22.73;15.20;;;;;;;;;;10511372;28;20411;-71
2022/04/20 01:54:18;;;;;;;26.50;15.05;;;;;;;;;;10510654;28;20028;-70
2022/04/20 01:59:18;;;;;;;31.23;14.45;;;;;;;;;;10511954;28;20406;-75
2022/04/20 02:04:19;;;;;;;25.52;14.68;;;;;;;;;;10510638;28;20016;-71
2022/04/20 02:09:20;;;;;;;24.75;13.73;;;;;;;;;;10509529;28;20027;-69
2022/04/20 02:14:20;;;;;;;23.08;13.07;;;;;;;;;;10510310;28;20053;-75
2022/04/20 02:19:20;;;;;;;29.00;15.48;;;;;;;;;;10510063;28;20491;-71
2022/04/20 02:24:21;;;;;;;23.95;16.15;;;;;;;;;;10510035;28;20535;-72
2022/04/20 02:29:21;;;;;;;29.35;17.45;;;;;;;;;;10527642;28;20371;-70
2022/04/20 02:34:22;;;;;;;27.35;15.48;;;;;;;;;;10509493;28;20457;-74
2022/04/20 02:39:22;;;;;;;28.75;16.30;;;;;;;;;;10527646;28;20055;-73
2022/04/20 02:44:22;;;;;;;26.73;15.50;;;;;;;;;;10492529;28;20060;-72
2022/04/20 02:49:23;;;;;;;33.88;16.65;;;;;;;;;;10509693;28;20250;-70
2022/04/20 02:54:23;;;;;;;29.95;18.05;;;;;;;;;;10509535;28;20020;-73
2022/04/20 02:59:23;;;;;;;32.03;18.55;;;;;;;;;;10509055;28;20035;-70
2022/04/20 03:04:23;;;;;;;28.70;16.27;;;;;;;;;;10509870;28;20070;-70
2022/04/20 03:09:24;;;;;;;32.47;18.67;;;;;;;;;;10509997;28;20575;-71
2022/04/20 03:14:24;;;;;;;27.58;14.98;;;;;;;;;;10527859;28;20554;-71
2022/04/20 03:19:24;;;;;;;30.00;17.37;;;;;;;;;;10526430;28;20586;-70
2022/04/20 03:24:24;;;;;;;28.55;17.85;;;;;;;;;;10516682;28;20095;-70
2022/04/20 03:29:25;;;;;;;30.33;18.90;;;;;;;;;;10516826;28;20024;-71
2022/04/20 03:34:26;;;;;;;30.55;18.55;;;;;;;;;;10516065;28;20411;-72
2022/04/20 03:39:26;;;;;;;39.33;19.90;;;;;;;;;;10534746;28;20023;-70
2022/04/20 03:44:29;;;;;;;37.80;20.73;;;;;;;;;;10515505;28;20105;-70
2022/04/20 03:49:30;;;;;;;35.95;19.30;;;;;;;;;;10533498;28;20454;-71
2022/04/20 03:54:30;;;;;;;33.40;20.17;;;;;;;;;;10514103;28;20054;-73
2022/04/20 03:59:32;;;;;;;36.72;21.35;;;;;;;;;;10496693;28;20036;-72
2022/04/20 04:04:32;;;;;;;40.67;21.23;;;;;;;;;;10514000;28;20078;-73
2022/04/20 04:09:33;;;;;;;47.88;19.70;;;;;;;;;;10514283;28;20471;-78
2022/04/20 04:14:40;;;;;;;29.03;17.70;;;;;;;;;;10534773;28;20027;-72
2022/04/20 04:19:40;;;;;;;35.90;20.23;;;;;;;;;;10555600;28;20069;-77
2022/04/20 04:24:41;;;;;;;30.65;16.33;;;;;;;;;;10526637;28;20030;-76
2022/04/20 04:29:41;;;;;;;31.30;19.50;;;;;;;;;;10534692;28;20099;-76
2022/04/20 04:34:47;;;;;;;34.50;19.45;;;;;;;;;;10512381;28;20024;-73
2022/04/20 04:39:47;;;;;;;37.65;18.83;;;;;;;;;;10513180;28;20461;-77
2022/04/20 04:44:48;;;;;;;41.55;20.05;;;;;;;;;;10530153;28;20068;-73
2022/04/20 04:49:48;;;;;;;41.67;21.00;;;;;;;;;;10512549;28;20039;-73
2022/04/20 04:54:48;;;;;;;37.90;20.83;;;;;;;;;;10512425;28;20491;-75
2022/04/20 04:59:49;;;;;;;38.28;20.65;;;;;;;;;;10552418;28;20289;-73
2022/04/20 05:04:49;;;;;;;42.45;23.73;;;;;;;;;;10553199;28;20068;-74
2022/04/20 05:09:49;;;;;;;37.53;21.83;;;;;;;;;;10553734;28;20544;-74
2022/04/20 05:14:49;;;;;;;35.00;19.50;;;;;;;;;;10572440;28;20576;-72
2022/04/20 05:19:50;;;;;;;36.40;19.65;;;;;;;;;;10571730;28;20024;-72
2022/04/20 05:24:50;;;;;;;34.13;18.13;;;;;;;;;;10554329;28;20034;-74
2022/04/20 05:29:50;;;;;;;38.78;19.92;;;;;;;;;;10553268;28;20480;-75
2022/04/20 05:34:51;;;;;;;42.97;21.60;;;;;;;;;;10552514;28;20036;-79
2022/04/20 05:45:10;;;;;;;37.80;20.20;;;;;;;;;;10557171;28;20059;-77
2022/04/20 05:50:10;;;;;;;36.88;20.10;;;;;;;;;;10552711;28;20483;-78
2022/04/20 05:55:11;;;;;;;37.35;19.25;;;;;;;;;;10553260;28;20020;-76
2022/04/20 06:00:13;;;;;;;40.70;20.05;;;;;;;;;;10573919;28;20055;-72
2022/04/20 06:05:13;;;;;;;41.65;20.13;;;;;;;;;;10573934;28;20016;-73
2022/04/20 06:10:13;;;;;;;36.17;18.08;;;;;;;;;;10572242;28;20118;-73
2022/04/20 06:15:15;;;;;;;41.63;19.40;;;;;;;;;;10554634;28;20023;-73
2022/04/20 06:20:15;;;;;;;31.88;19.70;;;;;;;;;;10553204;28;20592;-75
2022/04/20 06:25:15;;;;;;;27.67;16.67;;;;;;;;;;10552175;28;20016;-74
2022/04/20 06:30:16;;;;;;;31.67;18.17;;;;;;;;;;10551431;28;20076;-73
2022/04/20 06:35:16;;;;;;;35.30;19.38;;;;;;;;;;10569502;28;20069;-72
2022/04/20 06:40:16;;;;;;;32.17;17.58;;;;;;;;;;10551071;28;20038;-75
2022/04/20 06:45:17;;;;;;;29.48;18.40;;;;;;;;;;10551235;28;20446;-75
2022/04/20 06:50:17;;;;;;;41.20;20.10;;;;;;;;;;10551445;28;20023;-74
2022/04/20 07:00:36;;;;;;;44.38;21.10;;;;;;;;;;10568513;28;20285;-72
2022/04/20 07:05:36;;;;;;;41.92;22.58;;;;;;;;;;10551214;28;20015;-73
2022/04/20 07:10:37;;;;;;;47.60;24.15;;;;;;;;;;10550936;28;20403;-71
2022/04/20 07:15:37;;;;;;;47.50;22.87;;;;;;;;;;10550695;28;20027;-74
2022/04/20 07:20:38;;;;;;;37.60;20.77;;;;;;;;;;10550513;28;20030;-72
2022/04/20 07:25:38;;;;;;;42.15;21.48;;;;;;;;;;10533604;28;20024;-76
2022/04/20 07:30:38;;;;;;;38.80;20.50;;;;;;;;;;10550294;28;20030;-72
2022/04/20 07:35:39;;;;;;;38.25;22.15;;;;;;;;;;10549960;28;20568;-74
2022/04/20 07:40:39;;;;;;;44.03;26.98;;;;;;;;;;10550117;28;20024;-77
2022/04/20 07:45:40;;;;;;;40.55;22.48;;;;;;;;;;10549788;28;20043;-72
2022/04/20 07:50:40;;;;;;;38.30;20.13;;;;;;;;;;10533803;28;20024;-74
2022/04/20 07:55:46;;;;;;;48.08;24.42;;;;;;;;;;10549799;28;20011;-75
2022/04/20 08:00:49;;;;;;;44.35;23.55;;;;;;;;;;10549356;28;20092;-73
2022/04/20 08:05:53;;;;;;;45.20;25.42;;;;;;;;;;10567839;28;20068;-71
2022/04/20 08:10:53;;;;;;;38.67;23.00;;;;;;;;;;10556233;28;20024;-75
2022/04/20 08:15:55;;;;;;;39.78;23.77;;;;;;;;;;10575334;28;20043;-72
2022/04/20 08:20:55;;;;;;;48.20;25.63;;;;;;;;;;10556698;28;20044;-74
2022/04/20 08:25:56;;;;;;;42.92;25.95;;;;;;;;;;10555958;28;20111;-71
2022/04/20 08:30:56;;;;;;;46.90;25.40;;;;;;;;;;10539477;28;20015;-73
2022/04/20 08:35:56;;;;;;;48.13;25.73;;;;;;;;;;10556378;28;20161;-78
2022/04/20 08:40:59;;;;;;;51.15;25.00;;;;;;;;;;10555054;28;20601;-71
2022/04/20 08:46:02;;;;;;;42.67;23.35;;;;;;;;;;10555529;28;20530;-71
2022/04/20 08:51:06;;;;;;;41.80;21.15;;;;;;;;;;10554465;28;20107;-72
2022/04/20 09:01:26;;;;;;;33.10;20.25;;;;;;;;;;10572389;28;20028;-73
2022/04/20 09:06:26;;;;;;;34.00;19.15;;;;;;;;;;10554608;28;20016;-72
2022/04/20 09:11:27;;;;;;;37.15;20.77;;;;;;;;;;10573074;28;20096;-75
2022/04/20 09:16:30;;;;;;;42.38;21.90;;;;;;;;;;10554685;28;20422;-72
2022/04/20 09:21:31;;;;;;;39.95;22.25;;;;;;;;;;10553931;28;20506;-74
2022/04/20 09:26:31;;;;;;;46.20;26.42;;;;;;;;;;10536587;28;20118;-77
2022/04/20 09:31:41;;;;;;;36.70;21.02;;;;;;;;;;10536335;28;20016;-76
2022/04/20 09:36:45;;;;;;;34.72;18.73;;;;;;;;;;10553237;28;20088;-72
2022/04/20 09:41:59;;;;;;;36.55;19.98;;;;;;;;;;10536794;28;20023;-73
2022/04/20 09:52:18;;;;;;;36.55;19.70;;;;;;;;;;10571189;28;20098;-72
2022/04/20 09:57:19;;;;;;;32.70;18.97;;;;;;;;;;10571083;28;20024;-72
2022/04/20 10:02:19;;;;;;;34.78;19.20;;;;;;;;;;10535542;28;20126;-74
2022/04/20 10:07:19;;;;;;;25.27;14.57;;;;;;;;;;10552691;28;20020;-72
2022/04/20 10:12:20;;;;;;;28.67;16.55;;;;;;;;;;10553074;28;20031;-71
2022/04/20 10:17:21;;;;;;;18.55;11.60;;;;;;;;;;10551954;28;20027;-72
2022/04/20 10:22:23;;;;;;;15.05;8.85;;;;;;;;;;10551661;28;20019;-72
2022/04/20 10:27:33;;;;;;;24.45;10.50;;;;;;;;;;10550449;28;20102;-74
2022/04/20 10:32:58;;;;;;;12.70;8.88;;;;;;;;;;10550704;28;20072;-72
2022/04/20 10:38:11;;;;;;;14.05;9.50;;;;;;;;;;10551251;28;20026;-73
2022/04/20 10:43:22;;;;;;;12.50;9.07;;;;;;;;;;10551154;28;20059;-72
2022/04/20 10:48:23;;;;;;;15.40;9.00;;;;;;;;;;10569102;28;20071;-72
2022/04/20 10:53:23;;;;;;;11.77;8.73;;;;;;;;;;10550953;28;20016;-72
2022/04/20 10:58:24;;;;;;;10.93;8.73;;;;;;;;;;10550798;28;20031;-74
2022/04/20 11:03:24;;;;;;;11.97;8.20;;;;;;;;;;10550709;28;20666;-73
2022/04/20 11:08:25;;;;;;;14.00;8.80;;;;;;;;;;10569924;28;20311;-73
2022/04/20 11:19:03;;;;;;;14.05;8.20;;;;;;;;;;10567796;28;20028;-72
2022/04/20 11:24:07;;;;;;;12.05;8.73;;;;;;;;;;10568505;28;20843;-76
2022/04/20 11:29:11;;;;;;;15.15;7.63;;;;;;;;;;10549613;28;20027;-71
2022/04/20 11:34:15;;;;;;;18.48;10.13;;;;;;;;;;10549935;28;20023;-74
2022/04/20 11:39:16;;;;;;;13.48;9.32;;;;;;;;;;10550080;28;20625;-74
2022/04/20 11:44:22;;;;;;;12.63;8.73;;;;;;;;;;10555935;28;20109;-76
2022/04/20 11:49:28;;;;;;;15.07;10.32;;;;;;;;;;10557247;28;20080;-74
2022/04/20 11:54:29;;;;;;;14.52;8.77;;;;;;;;;;10575606;28;20509;-78
2022/04/20 11:59:29;;;;;;;17.63;10.40;;;;;;;;;;10557151;28;20023;-74
2022/04/20 12:04:30;;;;;;;16.03;10.20;;;;;;;;;;10557342;28;20498;-72
2022/04/20 12:09:31;;;;;;;15.05;10.25;;;;;;;;;;10557286;28;20024;-72
2022/04/20 12:14:38;;;;;;;19.33;12.63;;;;;;;;;;10556543;28;20089;-71
2022/04/20 12:19:40;;;;;;;17.63;11.63;;;;;;;;;;10556658;28;20360;-71
2022/04/20 12:24:43;;;;;;;29.73;16.33;;;;;;;;;;10539305;28;20038;-74
2022/04/20 12:29:45;;;;;;;26.65;15.95;;;;;;;;;;10556108;28;20027;-74
2022/04/20 12:34:53;;;;;;;33.63;20.35;;;;;;;;;;10556325;28;20120;-73
2022/04/20 12:39:53;;;;;;;;;;;;;;;;;;10575326;28;20097;-79
2022/04/20 12:45:02;;;;;;;35.80;20.23;;;;;;;;;;10555560;28;20525;-73
2022/04/20 12:50:03;;;;;;;39.45;23.13;;;;;;;;;;10573884;28;20416;-75
2022/04/20 12:55:08;;;;;;;38.13;22.42;;;;;;;;;;10554110;28;20548;-72
2022/04/20 13:05:32;;;;;;;32.08;21.27;;;;;;;;;;10573413;28;20548;-76
2022/04/20 13:10:40;;;;;;;32.28;18.17;;;;;;;;;;10546370;28;20027;-72
2022/04/20 13:15:41;;;;;;;30.83;21.45;;;;;;;;;;10533433;28;20496;-72
2022/04/20 13:20:41;;;;;;;31.60;18.50;;;;;;;;;;10531772;28;20024;-75
2022/04/20 13:31:00;;;;;;;33.67;21.02;;;;;;;;;;10552230;28;20499;-72
2022/04/20 13:36:01;;;;;;;37.38;23.02;;;;;;;;;;10531312;28;20047;-70
2022/04/20 13:41:01;;;;;;;39.90;23.42;;;;;;;;;;10531340;28;20023;-70
2022/04/20 13:46:02;;;;;;;33.30;21.40;;;;;;;;;;10516478;28;20056;-71
2022/04/20 13:51:02;;;;;;;37.10;21.73;;;;;;;;;;10529098;28;20032;-78
2022/04/20 13:56:02;;;;;;;37.67;19.13;;;;;;;;;;10530048;28;20028;-76
2022/04/20 14:01:03;;;;;;;30.90;17.33;;;;;;;;;;10533900;28;20281;-74
2022/04/20 14:06:03;;;;;;;34.60;17.13;;;;;;;;;;10530535;28;20024;-73
2022/04/20 14:11:03;;;;;;;20.20;13.33;;;;;;;;;;10532371;28;20272;-71
2022/04/20 14:16:04;;;;;;;17.08;9.68;;;;;;;;;;10534932;28;20031;-74
2022/04/20 14:21:04;;;;;;;12.65;7.63;;;;;;;;;;10557871;28;20415;-73
2022/04/20 14:36:42;;;;;;;8.40;4.78;;;;;;;;;;10549632;28;20028;-71
2022/04/20 14:41:42;;;;;;;5.93;4.57;;;;;;;;;;10508679;28;20024;-74
2022/04/20 14:46:43;;;;;;;5.18;3.97;;;;;;;;;;10527759;28;20070;-74
2022/04/20 14:51:44;;;;;;;8.23;3.80;;;;;;;;;;10528404;28;20168;-74
2022/04/20 14:56:45;;;;;;;3.00;2.60;;;;;;;;;;10528490;28;20024;-73
2022/04/20 15:01:45;;;;;;;4.75;3.22;;;;;;;;;;10530349;28;20051;-70
2022/04/20 15:06:45;;;;;;;8.75;4.07;;;;;;;;;;10523603;28;20024;-74
2022/04/20 15:11:46;;;;;;;5.63;4.18;;;;;;;;;;10513653;28;20205;-75
2022/04/20 15:16:48;;;;;;;12.15;6.03;;;;;;;;;;10550936;28;20038;-71
2022/04/20 15:21:49;;;;;;;10.00;6.05;;;;;;;;;;10532426;28;20507;-77
2022/04/20 15:26:49;;;;;;;12.43;7.15;;;;;;;;;;10539703;28;20027;-78
2022/04/20 15:31:51;;;;;;;13.52;6.68;;;;;;;;;;10558612;28;20035;-73
2022/04/20 15:36:51;;;;;;;10.70;7.85;;;;;;;;;;10538359;28;20165;-70
2022/04/20 15:41:51;;;;;;;9.60;6.25;;;;;;;;;;10558623;28;20428;-73
2022/04/20 15:46:51;;;;;;;8.40;6.00;;;;;;;;;;10526576;28;20043;-73
2022/04/20 15:51:52;;;;;;;8.45;5.45;;;;;;;;;;10536393;28;20533;-76
2022/04/20 16:02:11;;;;;;;10.50;7.93;;;;;;;;;;10548061;28;20612;-77
2022/04/20 16:07:12;;;;;;;13.48;7.03;;;;;;;;;;10526727;28;20024;-75
2022/04/20 16:12:12;;;;;;;10.30;6.90;;;;;;;;;;10533271;28;20028;-70
2022/04/20 16:17:12;;;;;;;7.32;5.38;;;;;;;;;;10534169;28;20036;-75
2022/04/20 16:22:12;;;;;;;8.00;6.77;;;;;;;;;;10536737;28;20027;-74
2022/04/20 16:27:13;;;;;;;7.85;5.40;;;;;;;;;;10538472;28;20499;-73
2022/04/20 16:32:13;;;;;;;10.13;5.57;;;;;;;;;;10531304;28;20028;-73
2022/04/20 16:37:13;;;;;;;9.00;6.13;;;;;;;;;;10534530;28;20035;-74
2022/04/20 16:42:14;;;;;;;8.70;6.38;;;;;;;;;;10533289;28;20062;-69
2022/04/20 16:47:14;;;;;;;6.90;5.35;;;;;;;;;;10531914;28;20134;-72
2022/04/20 16:52:15;;;;;;;10.88;6.63;;;;;;;;;;10519129;28;20024;-70
2022/04/20 16:57:15;;;;;;;5.95;5.35;;;;;;;;;;10513023;28;20028;-75
2022/04/20 17:02:16;;;;;;;9.75;5.60;;;;;;;;;;10511921;28;20032;-73
2022/04/20 17:07:16;;;;;;;6.63;4.83;;;;;;;;;;10524047;28;20020;-71
2022/04/20 17:12:16;;;;;;;7.53;5.28;;;;;;;;;;10521152;28;20024;-74
2022/04/20 17:17:16;;;;;;;8.57;4.30;;;;;;;;;;10516644;28;20479;-73
2022/04/20 17:27:36;;;;;;;6.90;4.63;;;;;;;;;;10528867;28;20031;-76
2022/04/20 17:32:39;;;;;;;9.97;4.80;;;;;;;;;;10519058;28;20028;-76
2022/04/20 17:37:40;;;;;;;11.80;6.97;;;;;;;;;;10524010;28;20281;-70
2022/04/20 17:42:41;;;;;;;9.85;7.47;;;;;;;;;;10531628;28;20027;-70
2022/04/20 17:47:41;;;;;;;11.85;7.97;;;;;;;;;;10531523;28;20055;-72
2022/04/20 17:52:41;;;;;;;12.98;8.32;;;;;;;;;;10536990;28;20120;-73
2022/04/20 17:57:42;;;;;;;11.30;6.75;;;;;;;;;;10550762;28;20058;-70
2022/04/20 18:02:42;;;;;;;12.40;8.20;;;;;;;;;;10545972;28;20446;-72
2022/04/20 18:07:45;;;;;;;11.75;7.63;;;;;;;;;;10528553;28;20023;-70
2022/04/20 18:12:45;;;;;;;13.80;8.85;;;;;;;;;;10530013;28;20042;-74
2022/04/20 18:17:45;;;;;;;18.45;9.50;;;;;;;;;;10527383;28;20039;-71
2022/04/20 18:22:46;;;;;;;13.18;7.60;;;;;;;;;;10548014;28;20026;-71
2022/04/20 18:27:47;;;;;;;11.43;8.02;;;;;;;;;;10525907;28;20073;-72
2022/04/20 18:32:47;;;;;;;12.20;7.70;;;;;;;;;;10522969;28;20526;-71
2022/04/20 18:37:48;;;;;;;11.57;8.48;;;;;;;;;;10527498;28;20027;-71
2022/04/20 18:42:48;;;;;;;14.40;8.43;;;;;;;;;;10530944;28;20112;-70
2022/04/20 18:47:48;;;;;;;12.02;7.63;;;;;;;;;;10520699;28;20289;-70
2022/04/20 18:58:08;;;;;;;13.35;8.65;;;;;;;;;;10553507;28;20035;-70
2022/04/20 19:03:08;;;;;;;16.25;9.13;;;;;;;;;;10548903;28;20035;-70
2022/04/20 19:08:08;;;;;;;14.80;8.83;;;;;;;;;;10549574;28;20028;-76
2022/04/20 19:13:09;;;;;;;16.55;10.40;;;;;;;;;;10548615;28;20085;-74
2022/04/20 19:18:09;;;;;;;14.93;10.20;;;;;;;;;;10523660;28;20491;-75
2022/04/20 19:23:09;;;;;;;16.35;9.98;;;;;;;;;;10507591;28;20020;-71
2022/04/20 19:28:10;;;;;;;18.75;11.10;;;;;;;;;;10525563;28;20016;-72
2022/04/20 19:33:11;;;;;;;13.85;9.38;;;;;;;;;;10536810;28;20398;-75
2022/04/20 19:38:12;;;;;;;13.73;9.98;;;;;;;;;;10508518;28;20027;-74
2022/04/20 19:43:12;;;;;;;11.73;8.25;;;;;;;;;;10545117;28;20036;-70
2022/04/20 19:48:12;;;;;;;10.05;7.53;;;;;;;;;;10549352;28;20028;-73
2022/04/20 19:53:14;;;;;;;12.25;8.20;;;;;;;;;;10548928;28;20035;-73
2022/04/20 19:58:15;;;;;;;11.10;7.25;;;;;;;;;;10547008;28;20088;-70
2022/04/20 20:03:16;;;;;;;12.82;6.90;;;;;;;;;;10544708;28;20114;-75
2022/04/20 20:08:17;;;;;;;10.27;7.03;;;;;;;;;;10555458;28;20050;-74
2022/04/20 20:13:17;;;;;;;10.48;6.85;;;;;;;;;;10554905;28;20550;-70
2022/04/20 20:18:17;;;;;;;12.75;7.57;;;;;;;;;;10554910;28;20023;-71
2022/04/20 20:33:57;;;;;;;8.02;6.28;;;;;;;;;;10556383;28;20031;-70
2022/04/20 20:38:57;;;;;;;10.80;7.00;;;;;;;;;;10533928;28;20031;-71
2022/04/20 20:43:58;;;;;;;14.83;8.00;;;;;;;;;;10515757;28;20048;-73
2022/04/20 20:54:17;;;;;;;15.15;8.13;;;;;;;;;;10534575;28;20043;-70
2022/04/20 20:59:17;;;;;;;10.87;7.63;;;;;;;;;;10535120;28;20028;-70
2022/04/20 21:04:18;;;;;;;11.43;7.72;;;;;;;;;;10552935;28;20315;-72
2022/04/20 21:09:18;;;;;;;14.10;9.00;;;;;;;;;;10532160;28;20088;-69
2022/04/20 21:14:19;;;;;;;16.83;9.23;;;;;;;;;;10529231;28;20036;-71
2022/04/20 21:19:19;;;;;;;17.52;10.68;;;;;;;;;;10531857;28;20115;-73
2022/04/20 21:24:19;;;;;;;14.55;8.93;;;;;;;;;;10524597;28;20028;-71
2022/04/20 21:29:20;;;;;;;16.88;8.60;;;;;;;;;;10533125;28;20024;-73
2022/04/20 21:34:20;;;;;;;15.43;10.20;;;;;;;;;;10536944;28;20024;-71
2022/04/20 21:39:20;;;;;;;18.10;10.05;;;;;;;;;;10531388;28;20031;-71
2022/04/20 21:44:21;;;;;;;22.15;9.90;;;;;;;;;;10533032;28;20134;-70
2022/04/20 21:49:21;;;;;;;17.87;9.67;;;;;;;;;;10533774;28;20015;-69
2022/04/20 21:54:22;;;;;;;14.03;10.63;;;;;;;;;;10538961;28;20297;-72
2022/04/20 21:59:23;;;;;;;16.65;12.10;;;;;;;;;;10537940;28;20710;-70
2022/04/20 22:09:48;;;;;;;17.42;10.10;;;;;;;;;;10554709;28;20016;-70
2022/04/20 22:14:55;;;;;;;21.08;11.10;;;;;;;;;;10543304;28;20015;-72
2022/04/20 22:19:55;;;;;;;20.08;12.00;;;;;;;;;;10557423;28;20070;-71
2022/04/20 22:24:56;;;;;;;20.77;13.45;;;;;;;;;;10557090;28;20155;-70
2022/04/20 22:29:56;;;;;;;21.42;11.60;;;;;;;;;;10555984;28;20028;-71
2022/04/20 22:34:56;;;;;;;18.63;11.80;;;;;;;;;;10537373;28;20039;-71
2022/04/20 22:39:57;;;;;;;18.83;12.18;;;;;;;;;;10556346;28;20040;-70
2022/04/20 22:44:57;;;;;;;18.17;10.68;;;;;;;;;;10520100;28;20040;-70
2022/04/20 22:49:57;;;;;;;15.37;10.27;;;;;;;;;;10534772;28;20306;-70
2022/04/20 22:54:58;;;;;;;16.58;10.13;;;;;;;;;;10536380;28;20027;-70
2022/04/20 22:59:58;;;;;;;18.00;11.10;;;;;;;;;;10534255;28;20031;-71
2022/04/20 23:04:58;;;;;;;19.70;11.10;;;;;;;;;;10531915;28;20020;-74
2022/04/20 23:09:59;;;;;;;16.10;10.37;;;;;;;;;;10532793;28;20543;-71
2022/04/20 23:15:00;;;;;;;16.67;10.88;;;;;;;;;;10550080;28;20020;-70
2022/04/20 23:20:01;;;;;;;18.42;11.45;;;;;;;;;;10539674;28;20534;-72
2022/04/20 23:30:21;;;;;;;16.65;10.35;;;;;;;;;;10558318;28;20081;-76
2022/04/20 23:35:23;;;;;;;17.08;12.02;;;;;;;;;;10558396;28;20114;-74
2022/04/20 23:40:24;;;;;;;15.95;11.27;;;;;;;;;;10564932;28;20032;-74
2022/04/20 23:45:25;;;;;;;15.98;11.50;;;;;;;;;;10549225;28;20511;-74
2022/04/20 23:50:25;;;;;;;16.52;10.32;;;;;;;;;;10547948;28;20027;-69
2022/04/20 23:55:25;;;;;;;22.33;13.85;;;;;;;;;;10547595;28;20080;-69
